Time;durP1;ratioP1;P1;durP2;ratioP2;P2;SDS_P1;SDS_P2;PMS_P1;PMS_P2;Temp;Humidity;BMP_temperature;BMP_pressure;BME280_temperature;BME280_humidity;BME280_pressure;Samples;Min_cycle;Max_cycle;Signal;HPM_P1;HPM_P2
2021/12/12 00:03:21;;;;;;;1999.90;999.90;;;;;;;0.91;79.08;101789.91;15582555;28;20080;-64
2021/12/12 00:10:59;;;;;;;1999.90;999.90;;;;;;;1.03;78.55;101787.13;15602855;28;20065;-64
2021/12/12 00:18:33;;;;;;;1999.90;999.90;;;;;;;0.90;78.78;101781.91;15625761;28;20077;-64
2021/12/12 00:26:07;;;;;;;1999.90;999.90;;;;;;;0.84;77.91;101792.81;15590829;28;20050;-63
2021/12/12 00:33:43;;;;;;;1999.90;999.90;;;;;;;0.92;77.74;101794.31;15665861;28;20132;-64
2021/12/12 00:41:27;;;;;;;1999.90;999.90;;;;;;;0.97;76.45;101810.09;15589436;28;20051;-64
2021/12/12 00:49:05;;;;;;;1999.90;999.90;;;;;;;0.97;76.59;101832.94;15626827;28;20396;-64
2021/12/12 00:56:38;;;;;;;1999.90;999.90;;;;;;;0.99;76.62;101818.94;15583434;28;20037;-65
2021/12/12 01:04:19;;;;;;;1999.90;999.90;;;;;;;0.94;76.04;101825.19;15639004;28;20049;-64
2021/12/12 01:11:55;;;;;;;1999.90;999.90;;;;;;;0.97;76.08;101818.34;15597732;28;20574;-64
2021/12/12 01:19:32;;;;;;;1999.90;999.90;;;;;;;0.93;75.54;101808.91;15599905;28;20092;-65
2021/12/12 01:27:07;;;;;;;1999.90;999.90;;;;;;;0.78;75.48;101831.41;15581593;28;20045;-64
2021/12/12 01:34:43;;;;;;;1999.90;999.90;;;;;;;0.64;76.71;101828.09;15578706;28;20514;-64
2021/12/12 01:42:19;;;;;;;1999.90;999.90;;;;;;;0.64;76.55;101821.75;15657429;28;20046;-64
2021/12/12 01:49:57;;;;;;;1999.90;999.90;;;;;;;0.67;76.87;101824.84;15576345;28;20069;-64
2021/12/12 01:57:40;;;;;;;1999.90;999.90;;;;;;;0.66;76.33;101822.34;15578489;28;20062;-64
2021/12/12 02:05:18;;;;;;;1999.90;999.90;;;;;;;0.72;76.09;101824.94;15629147;28;20505;-63
2021/12/12 02:12:51;;;;;;;1999.90;999.90;;;;;;;0.49;76.94;101820.31;15594122;28;20038;-64
2021/12/12 02:20:34;;;;;;;1999.90;999.90;;;;;;;0.60;77.01;101812.31;15588204;28;20483;-64
2021/12/12 02:35:59;;;;;;;1999.90;999.90;;;;;;;0.48;76.97;101831.53;15595771;28;20034;-64
2021/12/12 02:43:40;;;;;;;1999.90;999.90;;;;;;;0.50;76.70;101829.38;15588776;28;20080;-64
2021/12/12 02:51:17;;;;;;;1999.90;999.90;;;;;;;0.63;75.93;101847.56;15601798;28;20488;-63
2021/12/12 02:58:53;;;;;;;1999.90;999.90;;;;;;;0.31;76.34;101849.78;15595199;28;20088;-64
2021/12/12 03:06:30;;;;;;;1999.90;999.90;;;;;;;0.30;76.61;101862.69;15638880;28;20080;-64
2021/12/12 03:14:04;;;;;;;1999.90;999.90;;;;;;;0.37;76.59;101851.59;15572062;28;20133;-64
2021/12/12 03:21:42;;;;;;;1999.90;999.90;;;;;;;0.26;76.19;101851.34;15593576;28;20135;-64
2021/12/12 03:29:16;;;;;;;1999.90;999.90;;;;;;;0.32;76.56;101855.06;15595303;28;20391;-65
2021/12/12 03:36:50;;;;;;;1999.90;999.90;;;;;;;0.34;76.27;101863.06;15590430;28;20071;-64
2021/12/12 03:44:27;;;;;;;1999.90;999.90;;;;;;;0.56;76.08;101858.66;15632976;28;20421;-64
2021/12/12 03:52:01;;;;;;;1999.90;999.90;;;;;;;0.66;75.94;101863.53;15591841;28;20040;-64
2021/12/12 03:59:35;;;;;;;1999.90;999.90;;;;;;;0.87;75.88;101876.69;15571570;28;20083;-64
2021/12/12 04:07:12;;;;;;;1999.90;999.90;;;;;;;1.09;74.58;101872.22;15574571;28;20046;-64
2021/12/12 04:14:47;;;;;;;1999.90;999.90;;;;;;;1.18;73.96;101886.44;15601632;28;20065;-64
2021/12/12 04:22:20;;;;;;;1999.90;999.90;;;;;;;1.17;73.65;101883.94;15604588;28;20100;-64
2021/12/12 04:29:55;;;;;;;1999.90;999.90;;;;;;;1.19;72.93;101890.03;15599788;28;20045;-63
2021/12/12 04:37:29;;;;;;;1999.90;999.90;;;;;;;1.12;73.53;101898.38;15609715;28;20311;-64
2021/12/12 04:45:17;;;;;;;1999.90;999.90;;;;;;;0.94;73.95;101915.00;15648534;28;20390;-64
2021/12/12 04:52:55;;;;;;;1999.90;999.90;;;;;;;0.84;74.26;101904.66;15601269;28;20525;-63
2021/12/12 05:00:32;;;;;;;1999.90;999.90;;;;;;;0.80;74.81;101906.19;15572158;28;20045;-63
2021/12/12 05:08:11;;;;;;;1999.90;999.90;;;;;;;0.85;74.38;101909.06;15626097;28;20060;-63
2021/12/12 05:15:48;;;;;;;1999.90;999.90;;;;;;;0.85;74.69;101907.16;15597067;28;20044;-64
2021/12/12 05:23:25;;;;;;;1999.90;999.90;;;;;;;0.86;74.16;101906.06;15632844;28;20046;-63
2021/12/12 05:31:00;;;;;;;1999.90;999.90;;;;;;;0.85;74.58;101915.41;15594163;28;20069;-63
2021/12/12 05:38:33;;;;;;;1999.90;999.90;;;;;;;0.87;74.67;101915.16;15578426;28;20136;-64
2021/12/12 05:46:19;;;;;;;1999.90;999.90;;;;;;;1.01;74.08;101919.31;15618611;28;20045;-64
2021/12/12 05:54:11;;;;;;;1999.90;999.90;;;;;;;0.96;73.90;101935.72;15633373;28;20505;-64
2021/12/12 06:01:46;;;;;;;1999.90;999.90;;;;;;;1.06;73.44;101922.19;15585832;28;20506;-62
2021/12/12 06:09:21;;;;;;;1999.90;999.90;;;;;;;0.96;73.63;101921.97;15666329;28;20411;-64
2021/12/12 06:16:55;;;;;;;1999.90;999.90;;;;;;;0.93;74.24;101913.34;15616870;28;20133;-64
2021/12/12 06:24:29;;;;;;;1999.90;999.90;;;;;;;0.94;74.50;101901.28;15629706;28;20041;-64
2021/12/12 06:32:05;;;;;;;1999.90;999.90;;;;;;;0.92;74.39;101906.19;15593223;28;20097;-64
2021/12/12 06:39:39;;;;;;;1999.90;999.90;;;;;;;0.92;74.59;101918.00;15613972;28;20080;-64
2021/12/12 06:47:18;;;;;;;1999.90;999.90;;;;;;;1.07;74.37;101921.13;15573766;28;20048;-64
2021/12/12 06:54:53;;;;;;;1999.90;999.90;;;;;;;1.15;75.11;101934.50;15588405;28;20733;-64
2021/12/12 07:02:27;;;;;;;1999.90;999.90;;;;;;;1.01;75.10;101934.97;15615234;28;20468;-64
2021/12/12 07:10:00;;;;;;;1999.90;999.90;;;;;;;1.09;74.63;101918.97;15583067;28;20056;-65
2021/12/12 07:17:34;;;;;;;1999.90;999.90;;;;;;;1.20;75.32;101922.78;15569484;28;20079;-63
2021/12/12 07:25:09;;;;;;;1999.90;999.90;;;;;;;1.28;74.78;101949.91;15620276;28;20041;-63
2021/12/12 07:32:43;;;;;;;1999.90;999.90;;;;;;;1.35;74.65;101934.09;15604959;28;20038;-62
2021/12/12 07:40:16;;;;;;;1999.90;999.90;;;;;;;1.63;74.46;101947.06;15608357;28;20037;-63
2021/12/12 07:47:51;;;;;;;1999.90;999.90;;;;;;;1.65;74.71;101946.81;15577952;28;21382;-63
2021/12/12 07:55:25;;;;;;;1999.90;999.90;;;;;;;1.67;74.82;101952.94;15576895;28;20038;-63
2021/12/12 08:02:59;;;;;;;1999.90;999.90;;;;;;;1.88;74.56;101952.28;15560643;28;20474;-62
2021/12/12 08:10:32;;;;;;;1999.90;999.90;;;;;;;1.78;74.78;101945.72;15587759;28;20566;-64
2021/12/12 08:18:10;;;;;;;1999.90;999.90;;;;;;;2.09;74.70;101944.41;15609051;28;20531;-65
2021/12/12 08:25:46;;;;;;;1999.90;999.90;;;;;;;2.01;74.82;101951.13;15585779;28;20046;-65
2021/12/12 08:33:20;;;;;;;1999.90;999.90;;;;;;;2.08;75.35;101942.72;15601600;28;20034;-65
2021/12/12 08:40:54;;;;;;;1999.90;999.90;;;;;;;2.29;75.14;101942.88;15602716;28;20412;-64
2021/12/12 08:48:39;;;;;;;1999.90;999.90;;;;;;;2.23;76.21;101934.75;15638213;28;20049;-65
2021/12/12 08:56:19;;;;;;;1999.90;999.90;;;;;;;2.30;76.18;101918.91;15618602;28;20040;-63
2021/12/12 09:03:56;;;;;;;1999.90;999.90;;;;;;;2.84;75.53;101911.81;15589216;28;20053;-65
2021/12/12 09:11:34;;;;;;;1999.90;999.90;;;;;;;2.85;76.15;101910.72;15626756;28;20506;-64
2021/12/12 09:19:12;;;;;;;1999.90;999.90;;;;;;;3.10;75.31;101921.28;15597189;28;20133;-64
2021/12/12 09:26:49;;;;;;;1999.90;999.90;;;;;;;3.33;74.96;101935.94;15568251;28;20419;-62
2021/12/12 09:34:31;;;;;;;1999.90;999.90;;;;;;;3.35;74.90;101933.78;15577581;28;20057;-64
2021/12/12 09:42:19;;;;;;;1999.90;999.90;;;;;;;3.68;74.20;101928.13;15561255;28;20483;-64
2021/12/12 09:58:50;;;;;;;1999.90;999.90;;;;;;;3.84;73.68;101934.66;15609260;28;20108;-66
2021/12/12 10:06:45;;;;;;;1999.90;999.90;;;;;;;3.89;73.74;101929.19;15545376;28;20054;-66
2021/12/12 10:14:28;;;;;;;1999.90;999.90;;;;;;;3.76;74.50;101924.91;15612630;28;20069;-65
2021/12/12 10:22:13;;;;;;;1999.90;999.90;;;;;;;3.90;74.64;101919.81;15607141;28;20065;-62
2021/12/12 10:30:05;;;;;;;1999.90;999.90;;;;;;;3.98;74.06;101905.56;15582853;28;20423;-65
2021/12/12 10:37:50;;;;;;;1999.90;999.90;;;;;;;3.95;75.13;101902.47;15557659;28;20038;-60
2021/12/12 10:45:28;;;;;;;1999.90;999.90;;;;;;;4.15;74.73;101896.31;15587434;28;20511;-64
2021/12/12 10:53:08;;;;;;;1999.90;999.90;;;;;;;4.42;73.55;101893.53;15567703;28;20049;-63
2021/12/12 11:00:45;;;;;;;1999.90;999.90;;;;;;;4.63;72.85;101890.66;15583441;28;20136;-65
2021/12/12 11:08:24;;;;;;;1999.90;999.90;;;;;;;4.92;72.53;101895.84;15710316;22;20068;-60
2021/12/12 11:16:03;;;;;;;1999.90;999.90;;;;;;;4.68;72.78;101900.09;15775055;28;20049;-60
2021/12/12 11:23:42;;;;;;;1999.90;999.90;;;;;;;4.50;73.56;101888.34;15736634;28;20052;-60
2021/12/12 11:31:19;;;;;;;1999.90;999.90;;;;;;;4.27;74.96;101888.69;15739726;28;20135;-61
2021/12/12 11:39:06;;;;;;;1999.90;999.90;;;;;;;4.44;73.78;101888.56;15757004;28;20087;-60
2021/12/12 11:46:44;;;;;;;1999.90;999.90;;;;;;;4.51;73.60;101886.41;15756076;28;20051;-60
2021/12/12 11:54:33;;;;;;;1999.90;999.90;;;;;;;4.73;73.43;101869.72;15729785;28;20493;-60
2021/12/12 12:02:30;;;;;;;1999.90;999.90;;;;;;;4.85;73.10;101862.88;15749614;28;20457;-60
2021/12/12 12:10:10;;;;;;;1999.90;999.90;;;;;;;4.75;73.52;101857.28;15704613;28;20191;-58
2021/12/12 12:18:02;;;;;;;1999.90;999.90;;;;;;;4.58;73.38;101842.78;15716147;28;20060;-61
2021/12/12 12:26:50;;;;;;;1999.90;999.90;;;;;;;4.49;73.41;101811.22;15708354;28;20048;-62
2021/12/12 12:34:17;;;;;;;1999.90;999.90;;;;;;;4.81;73.25;101830.50;15740347;28;20080;-57
2021/12/12 12:42:28;;;;;;;1999.90;999.90;;;;;;;4.71;73.52;101831.28;15735484;28;20102;-61
2021/12/12 12:50:41;;;;;;;1999.90;999.90;;;;;;;4.78;73.40;101814.44;15776941;28;20367;-58
2021/12/12 12:58:31;;;;;;;1999.90;999.90;;;;;;;4.93;73.41;101804.31;15708383;28;20043;-62
2021/12/12 13:06:48;;;;;;;1999.90;999.90;;;;;;;4.62;74.86;101774.81;15740624;28;20091;-59
2021/12/12 13:14:31;;;;;;;1999.90;999.90;;;;;;;4.63;74.77;101765.41;15737118;28;20524;-60
2021/12/12 13:22:12;;;;;;;1999.90;999.90;;;;;;;4.63;74.71;101766.25;15741109;28;20049;-59
2021/12/12 13:30:05;;;;;;;1999.90;999.90;;;;;;;4.18;77.13;101755.75;15735526;28;20040;-57
2021/12/12 13:37:57;;;;;;;1999.90;999.90;;;;;;;4.32;77.34;101743.13;15756326;28;20065;-60
2021/12/12 13:45:33;;;;;;;1999.90;999.90;;;;;;;4.39;76.30;101751.19;15738862;28;20394;-59
2021/12/12 13:53:11;;;;;;;1999.90;999.90;;;;;;;4.81;75.81;101758.59;15701636;28;20057;-62
2021/12/12 14:00:46;;;;;;;1999.90;999.90;;;;;;;4.81;75.69;101755.84;15738594;28;20048;-60
2021/12/12 14:08:22;;;;;;;1999.90;999.90;;;;;;;4.48;76.25;101755.13;15742061;28;20110;-61
2021/12/12 14:16:04;;;;;;;1999.90;999.90;;;;;;;4.69;75.98;101742.22;15750109;28;20043;-60
2021/12/12 14:23:40;;;;;;;1999.90;999.90;;;;;;;4.71;76.28;101741.97;15749310;28;20147;-62
2021/12/12 14:31:17;;;;;;;1999.90;999.90;;;;;;;4.97;75.36;101757.56;15772841;28;20099;-61
2021/12/12 14:38:53;;;;;;;1999.90;999.90;;;;;;;4.96;76.42;101755.91;15710597;28;20044;-61
2021/12/12 14:46:30;;;;;;;1999.90;999.90;;;;;;;4.92;76.90;101749.25;15730729;28;20485;-62
2021/12/12 14:54:09;;;;;;;1999.90;999.90;;;;;;;4.78;77.79;101753.59;15714557;28;20052;-59
2021/12/12 15:01:55;;;;;;;1999.90;999.90;;;;;;;4.83;78.31;101751.69;15725125;28;20060;-61
2021/12/12 15:09:38;;;;;;;1999.90;999.90;;;;;;;4.81;78.11;101761.38;15673705;28;20421;-60
2021/12/12 15:17:17;;;;;;;1999.90;999.90;;;;;;;4.79;79.20;101749.72;15738326;28;20094;-61
2021/12/12 15:24:58;;;;;;;1999.90;999.90;;;;;;;4.61;80.37;101751.03;15715412;28;20116;-60
2021/12/12 15:32:44;;;;;;;1999.90;999.90;;;;;;;4.80;80.33;101748.66;15711062;28;20048;-61
2021/12/12 15:40:44;;;;;;;1999.90;999.90;;;;;;;4.83;80.54;101732.34;15734658;28;20299;-60
2021/12/12 15:48:25;;;;;;;1999.90;999.90;;;;;;;4.88;80.41;101723.22;15709219;28;20044;-60
2021/12/12 15:56:04;;;;;;;1999.90;999.90;;;;;;;4.95;80.37;101742.34;15726596;28;20355;-60
2021/12/12 16:03:46;;;;;;;1999.90;999.90;;;;;;;5.04;80.76;101740.72;15720060;28;20443;-60
2021/12/12 16:11:22;;;;;;;1999.90;999.90;;;;;;;5.01;81.44;101744.88;15710201;28;20044;-61
2021/12/12 16:18:59;;;;;;;1999.90;999.90;;;;;;;5.08;81.33;101739.88;15755579;28;20072;-61
2021/12/12 16:26:38;;;;;;;1999.90;999.90;;;;;;;5.22;81.56;101738.28;15751071;28;20041;-62
2021/12/12 16:34:14;;;;;;;1999.90;999.90;;;;;;;5.13;81.42;101728.84;15726839;28;20032;-61
2021/12/12 16:42:05;;;;;;;1999.90;999.90;;;;;;;5.22;81.16;101731.94;15765556;28;20342;-63
2021/12/12 16:49:44;;;;;;;1999.90;999.90;;;;;;;5.21;81.89;101739.41;15760332;28;20044;-60
2021/12/12 16:57:25;;;;;;;1999.90;999.90;;;;;;;5.62;82.22;101728.38;15776948;28;20051;-61
2021/12/12 17:05:09;;;;;;;1999.90;999.90;;;;;;;5.53;80.90;101749.44;15808528;22;20493;-66
2021/12/12 17:12:54;;;;;;;1999.90;999.90;;;;;;;5.45;81.21;101742.50;15806997;28;20545;-65
2021/12/12 17:20:36;;;;;;;1999.90;999.90;;;;;;;5.62;81.33;101746.94;15771384;28;20432;-63
2021/12/12 17:28:13;;;;;;;1999.90;999.90;;;;;;;5.45;81.75;101736.97;15747886;28;20048;-65
2021/12/12 17:35:58;;;;;;;1999.90;999.90;;;;;;;5.66;81.70;101737.00;15744111;28;20139;-67
2021/12/12 17:44:11;;;;;;;1999.90;999.90;;;;;;;5.62;82.37;101728.38;15756192;28;20493;-61
2021/12/12 17:52:42;;;;;;;1999.90;999.90;;;;;;;5.91;81.23;101737.03;15772654;28;20067;-62
2021/12/12 18:00:20;;;;;;;1999.90;999.90;;;;;;;5.76;81.55;101743.38;15777379;28;20515;-63
2021/12/12 18:08:26;;;;;;;1999.90;999.90;;;;;;;5.80;82.17;101741.69;15775878;28;20052;-65
2021/12/12 18:16:35;;;;;;;1999.90;999.90;;;;;;;5.77;81.85;101738.66;15771357;28;20489;-63
2021/12/12 18:24:13;;;;;;;1999.90;999.90;;;;;;;5.82;81.88;101743.34;15748078;28;20071;-63
2021/12/12 18:31:50;;;;;;;1999.90;999.90;;;;;;;5.95;81.41;101751.16;15772085;28;20048;-64
2021/12/12 18:39:34;;;;;;;1999.90;999.90;;;;;;;6.13;80.92;101756.13;15760213;28;20073;-62
2021/12/12 18:47:09;;;;;;;1999.90;999.90;;;;;;;6.06;81.74;101772.22;15760166;28;20044;-62
2021/12/12 18:54:48;;;;;;;1999.90;999.90;;;;;;;6.12;81.51;101768.31;15755840;28;20051;-61
2021/12/12 19:02:27;;;;;;;1999.90;999.90;;;;;;;6.17;81.09;101779.44;15790716;28;20488;-63
2021/12/12 19:10:05;;;;;;;1999.90;999.90;;;;;;;6.17;80.86;101770.28;15720304;28;20053;-64
2021/12/12 19:17:44;;;;;;;1999.90;999.90;;;;;;;6.11;81.58;101776.91;15741059;28;20076;-62
2021/12/12 19:25:20;;;;;;;1999.90;999.90;;;;;;;6.19;81.23;101784.69;15766600;28;20072;-60
2021/12/12 19:32:54;;;;;;;1999.90;999.90;;;;;;;6.16;81.29;101785.25;15740905;28;20043;-62
2021/12/12 19:40:30;;;;;;;;;;;;;;;6.22;81.75;101787.72;15776842;28;20048;-63
2021/12/12 19:48:05;;;;;;;1999.90;999.90;;;;;;;6.32;81.50;101793.25;15759184;28;20477;-60
2021/12/12 19:55:44;;;;;;;1999.90;999.90;;;;;;;6.35;81.36;101795.47;15786299;28;20044;-61
2021/12/12 20:03:23;;;;;;;1999.90;999.90;;;;;;;6.38;81.80;101796.03;15761855;28;20564;-64
2021/12/12 20:10:59;;;;;;;1999.90;999.90;;;;;;;6.62;80.62;101789.63;15760513;28;20055;-60
2021/12/12 20:18:33;;;;;;;1999.90;999.90;;;;;;;6.35;81.81;101797.41;15767350;28;20140;-63
2021/12/12 20:26:10;;;;;;;1999.90;999.90;;;;;;;6.51;81.72;101790.75;15746565;28;20497;-64
2021/12/12 20:33:50;;;;;;;1999.90;999.90;;;;;;;6.48;81.95;101793.25;15777416;28;20102;-63
2021/12/12 20:41:29;;;;;;;1999.90;999.90;;;;;;;6.63;81.24;101805.16;15788826;28;20058;-62
2021/12/12 20:49:08;;;;;;;1999.90;999.90;;;;;;;6.50;82.08;101808.50;15783889;28;20067;-60
2021/12/12 20:56:49;;;;;;;1999.90;999.90;;;;;;;6.67;81.62;101819.31;15760562;28;20044;-59
2021/12/12 21:04:26;;;;;;;1999.90;999.90;;;;;;;6.70;81.73;101813.19;15745056;28;20045;-61
2021/12/12 21:12:10;;;;;;;1999.90;999.90;;;;;;;6.71;81.36;101817.63;15736500;28;20048;-62
2021/12/12 21:19:53;;;;;;;1999.90;999.90;;;;;;;6.83;81.66;101807.06;15773765;28;20063;-62
2021/12/12 21:27:36;;;;;;;1999.90;999.90;;;;;;;6.86;81.24;101816.75;15755987;28;20501;-60
2021/12/12 21:35:18;;;;;;;1999.90;999.90;;;;;;;6.77;81.51;101818.44;15751697;28;20042;-59
2021/12/12 21:43:10;;;;;;;1999.90;999.90;;;;;;;6.86;81.64;101816.75;15789299;28;20078;-62
2021/12/12 21:50:47;;;;;;;1999.90;999.90;;;;;;;6.92;81.59;101833.13;15769048;28;20122;-64
2021/12/12 21:58:40;;;;;;;1999.90;999.90;;;;;;;7.02;81.34;101825.88;15769946;28;20154;-62
2021/12/12 22:06:36;;;;;;;1999.90;999.90;;;;;;;6.95;81.73;101842.81;15758525;28;20044;-62
2021/12/12 22:14:21;;;;;;;1999.90;999.90;;;;;;;7.26;80.96;101842.72;15756026;28;20489;-61
2021/12/12 22:22:10;;;;;;;1999.90;999.90;;;;;;;7.49;80.27;101856.78;15778334;28;20059;-63
2021/12/12 22:29:55;;;;;;;1999.90;999.90;;;;;;;7.44;80.30;101850.41;15766890;28;20051;-64
2021/12/12 22:37:39;;;;;;;1999.90;999.90;;;;;;;7.49;80.81;101854.00;15726669;28;20045;-64
2021/12/12 22:45:34;;;;;;;1999.90;999.90;;;;;;;7.41;80.76;101856.56;15742848;28;20536;-64
2021/12/12 22:53:23;;;;;;;1999.90;999.90;;;;;;;7.45;81.00;101846.53;15751661;28;20109;-64
2021/12/12 23:01:27;;;;;;;1999.90;999.90;;;;;;;7.64;80.98;101858.66;15759694;28;20082;-63
2021/12/12 23:09:05;;;;;;;1999.90;999.90;;;;;;;7.62;81.14;101863.69;15785710;28;20054;-64
2021/12/12 23:24:42;;;;;;;1999.90;999.90;;;;;;;7.74;81.16;101868.88;15748550;28;20063;-64
2021/12/12 23:32:27;;;;;;;1999.90;999.90;;;;;;;7.81;80.71;101875.81;15786671;28;20040;-63
2021/12/12 23:40:19;;;;;;;1999.90;999.90;;;;;;;7.80;80.85;101878.84;15756095;28;20131;-64
2021/12/12 23:47:58;;;;;;;1999.90;999.90;;;;;;;7.82;81.16;101880.25;15738601;28;20135;-63
2021/12/12 23:55:36;;;;;;;1999.90;999.90;;;;;;;7.89;80.76;101873.53;15770773;28;20045;-64
